Time;durP1;ratioP1;P1;durP2;ratioP2;P2;SDS_P1;SDS_P2;PMS_P1;PMS_P2;Temp;Humidity;BMP_temperature;BMP_pressure;BME280_temperature;BME280_humidity;BME280_pressure;Samples;Min_cycle;Max_cycle;Signal;HPM_P1;HPM_P2
2023/10/09 00:01:03;;;;;;;10.27;3.75;;;;;;;;;;4970991;28;20056;-83
2023/10/09 00:03:35;;;;;;;8.57;3.90;;;;;;;;;;4990183;28;20042;-82
2023/10/09 00:06:04;;;;;;;8.55;4.18;;;;;;;;;;4986364;28;20041;-82
2023/10/09 00:08:34;;;;;;;7.60;3.60;;;;;;;;;;4973147;28;20060;-82
2023/10/09 00:11:16;;;;;;;9.55;4.13;;;;;;;;;;4967500;28;20289;-82
2023/10/09 00:13:49;;;;;;;6.88;4.32;;;;;;;;;;5021254;28;20552;-83
2023/10/09 00:16:46;;;;;;;12.57;4.95;;;;;;;;;;4968425;28;20046;-83
2023/10/09 00:19:30;;;;;;;7.07;4.00;;;;;;;;;;4971823;28;20052;-82
2023/10/09 00:21:58;;;;;;;12.40;4.53;;;;;;;;;;4983816;28;20128;-82
2023/10/09 00:24:24;;;;;;;7.55;3.72;;;;;;;;;;4985824;28;20065;-82
2023/10/09 00:29:54;;;;;;;10.55;5.03;;;;;;;;;;4977874;28;20046;-82
2023/10/09 00:32:26;;;;;;;10.48;4.32;;;;;;;;;;4970722;28;20552;-83
2023/10/09 00:34:52;;;;;;;7.05;4.05;;;;;;;;;;4970885;28;20045;-83
2023/10/09 00:37:33;;;;;;;11.23;4.95;;;;;;;;;;4998811;28;20091;-83
2023/10/09 00:40:11;;;;;;;10.35;4.80;;;;;;;;;;4987606;28;20047;-83
2023/10/09 00:42:39;;;;;;;11.05;4.53;;;;;;;;;;4999147;28;20065;-84
2023/10/09 00:45:07;;;;;;;8.27;4.25;;;;;;;;;;4994273;28;20045;-83
2023/10/09 00:47:34;;;;;;;9.40;4.40;;;;;;;;;;4987023;28;20053;-84
2023/10/09 00:50:20;;;;;;;13.07;4.63;;;;;;;;;;4994636;28;20053;-84
2023/10/09 00:52:50;;;;;;;9.82;4.72;;;;;;;;;;5000250;28;20045;-83
2023/10/09 00:55:27;;;;;;;10.57;4.38;;;;;;;;;;4987915;28;20034;-81
2023/10/09 00:57:59;;;;;;;6.53;3.83;;;;;;;;;;4981645;28;20038;-82
2023/10/09 01:00:32;;;;;;;7.00;4.20;;;;;;;;;;4999851;28;20515;-82
2023/10/09 01:03:19;;;;;;;8.05;4.72;;;;;;;;;;4992852;28;20026;-83
2023/10/09 01:06:34;;;;;;;12.20;5.00;;;;;;;;;;5003921;28;20046;-82
2023/10/09 01:11:09;;;;;;;10.25;4.75;;;;;;;;;;5001061;28;20397;-82
2023/10/09 01:13:52;;;;;;;9.45;5.00;;;;;;;;;;4986324;28;20087;-82
2023/10/09 01:16:20;;;;;;;13.13;5.50;;;;;;;;;;4987283;28;20052;-82
2023/10/09 01:19:00;;;;;;;8.57;4.88;;;;;;;;;;4987822;28;20038;-82
2023/10/09 01:21:26;;;;;;;9.80;4.85;;;;;;;;;;5000533;28;20069;-83
2023/10/09 01:24:07;;;;;;;14.48;5.70;;;;;;;;;;4985860;28;20050;-83
2023/10/09 01:26:39;;;;;;;13.95;6.05;;;;;;;;;;4994176;28;20114;-83
2023/10/09 01:29:21;;;;;;;14.18;6.15;;;;;;;;;;5001391;28;20054;-82
2023/10/09 01:31:54;;;;;;;14.38;6.05;;;;;;;;;;4985894;28;20429;-82
2023/10/09 01:34:23;;;;;;;14.50;6.38;;;;;;;;;;5004793;28;20045;-83
2023/10/09 01:36:50;;;;;;;11.82;6.60;;;;;;;;;;4990335;28;20054;-83
2023/10/09 01:39:23;;;;;;;15.27;7.20;;;;;;;;;;4987449;28;20042;-83
2023/10/09 01:41:58;;;;;;;15.75;7.63;;;;;;;;;;4985427;28;20054;-83
2023/10/09 01:44:27;;;;;;;13.45;7.47;;;;;;;;;;5001842;28;20125;-82
2023/10/09 01:46:58;;;;;;;15.07;7.72;;;;;;;;;;5000163;28;20112;-82
2023/10/09 01:49:31;;;;;;;18.08;7.90;;;;;;;;;;5002474;28;20125;-83
2023/10/09 01:52:09;;;;;;;20.95;8.85;;;;;;;;;;4983897;28;20046;-82
2023/10/09 01:54:38;;;;;;;17.33;7.93;;;;;;;;;;4982700;28;20049;-83
2023/10/09 02:00:05;;;;;;;19.08;8.77;;;;;;;;;;4974152;28;24238;-84
2023/10/09 02:02:33;;;;;;;23.20;8.93;;;;;;;;;;4991852;28;20053;-83
2023/10/09 02:05:10;;;;;;;27.08;10.18;;;;;;;;;;4975442;28;20049;-84
2023/10/09 02:07:40;;;;;;;22.92;11.13;;;;;;;;;;4988634;28;20124;-83
2023/10/09 02:12:59;;;;;;;21.60;12.07;;;;;;;;;;5004109;28;20104;-84
2023/10/09 02:23:37;;;;;;;30.52;12.68;;;;;;;;;;5007611;28;20124;-83
2023/10/09 02:26:05;;;;;;;30.30;12.40;;;;;;;;;;5001093;28;20050;-84
2023/10/09 02:28:33;;;;;;;33.38;13.75;;;;;;;;;;4973758;28;20069;-84
2023/10/09 02:31:13;;;;;;;39.65;14.40;;;;;;;;;;5007073;28;20100;-83
2023/10/09 02:33:39;;;;;;;39.85;16.25;;;;;;;;;;5022025;28;20128;-84
2023/10/09 02:36:06;;;;;;;38.67;16.85;;;;;;;;;;5002316;28;20033;-83
2023/10/09 02:38:35;;;;;;;39.05;15.93;;;;;;;;;;4988549;28;20452;-84
2023/10/09 02:43:34;;;;;;;41.67;16.58;;;;;;;;;;5003076;28;20050;-83
2023/10/09 02:46:14;;;;;;;42.60;17.80;;;;;;;;;;4996077;28;20046;-83
2023/10/09 02:48:48;;;;;;;43.00;17.05;;;;;;;;;;4985544;28;20485;-83
2023/10/09 02:51:32;;;;;;;46.85;18.25;;;;;;;;;;4991471;28;20095;-82
2023/10/09 02:57:06;;;;;;;42.67;18.15;;;;;;;;;;5000857;28;20053;-83
2023/10/09 02:59:32;;;;;;;43.35;19.05;;;;;;;;;;4983441;28;20057;-82
2023/10/09 03:01:59;;;;;;;47.58;17.90;;;;;;;;;;4986168;28;20033;-83
2023/10/09 03:04:32;;;;;;;41.53;18.23;;;;;;;;;;4984762;28;20157;-83
2023/10/09 03:06:58;;;;;;;42.60;17.58;;;;;;;;;;4999634;28;20038;-83
2023/10/09 03:09:28;;;;;;;42.00;18.52;;;;;;;;;;4984477;28;20045;-83
2023/10/09 03:12:11;;;;;;;42.13;18.90;;;;;;;;;;4998849;28;21810;-83
2023/10/09 03:14:38;;;;;;;44.95;18.50;;;;;;;;;;5001902;28;20089;-84
2023/10/09 03:17:04;;;;;;;46.67;19.40;;;;;;;;;;4981811;28;20042;-85
2023/10/09 03:19:37;;;;;;;52.40;20.30;;;;;;;;;;5007046;28;20168;-84
2023/10/09 03:22:03;;;;;;;47.13;19.88;;;;;;;;;;4987028;28;20042;-85
2023/10/09 03:24:35;;;;;;;45.60;20.45;;;;;;;;;;4983216;28;20441;-82
2023/10/09 03:27:02;;;;;;;54.78;22.38;;;;;;;;;;4985817;28;21702;-85
2023/10/09 03:29:28;;;;;;;53.60;21.42;;;;;;;;;;4997668;28;20037;-85
2023/10/09 03:31:56;;;;;;;51.03;21.35;;;;;;;;;;4986720;28;20501;-84
2023/10/09 03:34:22;;;;;;;54.05;22.35;;;;;;;;;;4987200;28;20070;-84
2023/10/09 03:36:59;;;;;;;56.38;22.80;;;;;;;;;;4971582;28;20054;-83
2023/10/09 03:39:41;;;;;;;51.72;22.58;;;;;;;;;;4983530;28;20474;-84
2023/10/09 03:42:10;;;;;;;51.97;22.05;;;;;;;;;;4985863;28;20038;-85
2023/10/09 03:44:41;;;;;;;55.30;22.70;;;;;;;;;;5000434;28;20349;-83
2023/10/09 03:47:11;;;;;;;55.30;20.77;;;;;;;;;;5000041;28;20041;-84
2023/10/09 03:49:39;;;;;;;57.88;23.30;;;;;;;;;;5004114;28;20078;-84
2023/10/09 03:52:09;;;;;;;57.58;22.83;;;;;;;;;;4971417;28;20397;-85
2023/10/09 03:54:35;;;;;;;56.70;24.13;;;;;;;;;;4996818;28;20081;-82
2023/10/09 03:57:02;;;;;;;58.22;24.45;;;;;;;;;;4985111;28;20081;-85
2023/10/09 03:59:32;;;;;;;62.15;23.88;;;;;;;;;;4997815;28;20108;-84
2023/10/09 04:01:58;;;;;;;54.55;24.38;;;;;;;;;;5001053;28;20054;-84
2023/10/09 04:04:25;;;;;;;53.25;23.02;;;;;;;;;;5001387;28;20038;-84
2023/10/09 04:06:51;;;;;;;61.88;26.35;;;;;;;;;;4986411;28;20034;-84
2023/10/09 04:11:46;;;;;;;60.65;27.58;;;;;;;;;;5001370;28;20090;-86
2023/10/09 04:14:32;;;;;;;69.50;25.95;;;;;;;;;;4973762;28;20045;-82
2023/10/09 04:17:04;;;;;;;72.03;30.45;;;;;;;;;;4993440;28;20074;-82
2023/10/09 04:19:38;;;;;;;64.20;28.50;;;;;;;;;;4999928;28;20057;-83
2023/10/09 04:22:08;;;;;;;75.40;28.88;;;;;;;;;;4995419;28;20042;-83
2023/10/09 04:24:44;;;;;;;76.20;30.08;;;;;;;;;;4985631;28;20529;-80
2023/10/09 04:27:16;;;;;;;74.00;29.92;;;;;;;;;;4987968;28;20088;-79
2023/10/09 04:29:49;;;;;;;75.35;30.85;;;;;;;;;;4971101;28;20034;-79
2023/10/09 04:32:18;;;;;;;74.95;31.48;;;;;;;;;;5003618;28;20050;-81
2023/10/09 04:34:48;;;;;;;81.32;33.47;;;;;;;;;;4978693;28;20795;-79
2023/10/09 04:39:47;;;;;;;94.22;34.25;;;;;;;;;;5006344;28;20128;-82
2023/10/09 04:42:26;;;;;;;85.80;33.47;;;;;;;;;;4995756;28;20144;-80
2023/10/09 04:47:38;;;;;;;95.45;35.58;;;;;;;;;;5004708;28;20568;-80
2023/10/09 04:50:14;;;;;;;102.15;36.58;;;;;;;;;;4988817;28;20054;-82
2023/10/09 04:58:00;;;;;;;98.65;35.60;;;;;;;;;;5023433;28;20049;-81
2023/10/09 05:02:57;;;;;;;108.53;37.17;;;;;;;;;;5007947;28;20069;-81
2023/10/09 05:08:21;;;;;;;101.18;35.05;;;;;;;;;;4992175;28;20057;-81
2023/10/09 05:16:25;;;;;;;93.22;36.03;;;;;;;;;;5001313;28;20042;-80
2023/10/09 05:19:06;;;;;;;96.95;36.78;;;;;;;;;;4977296;28;20064;-80
2023/10/09 05:26:50;;;;;;;90.75;35.20;;;;;;;;;;5007194;28;20042;-84
2023/10/09 05:35:07;;;;;;;94.70;35.92;;;;;;;;;;5011271;28;20042;-83
2023/10/09 05:37:33;;;;;;;77.72;32.63;;;;;;;;;;5000497;28;20050;-81
2023/10/09 05:42:42;;;;;;;66.00;29.45;;;;;;;;;;5008445;28;20552;-82
2023/10/09 05:47:35;;;;;;;64.05;26.98;;;;;;;;;;5002789;28;20042;-82
2023/10/09 05:50:33;;;;;;;64.82;26.10;;;;;;;;;;5005170;28;20095;-82
2023/10/09 05:55:48;;;;;;;57.92;26.30;;;;;;;;;;5012239;28;20050;-82
2023/10/09 06:03:53;;;;;;;55.03;24.48;;;;;;;;;;5005564;28;20042;-81
2023/10/09 06:11:49;;;;;;;59.28;25.33;;;;;;;;;;5002118;28;20124;-82
2023/10/09 06:14:45;;;;;;;48.05;22.25;;;;;;;;;;5011454;28;20042;-82
2023/10/09 06:19:43;;;;;;;49.03;21.27;;;;;;;;;;5008983;28;20097;-83
2023/10/09 06:22:56;;;;;;;46.88;20.77;;;;;;;;;;4980753;28;20080;-83
2023/10/09 06:24:57;;;;;;;48.90;19.73;;;;;;;;;;4993495;28;20050;-85
2023/10/09 06:30:23;;;;;;;52.80;19.90;;;;;;;;;;5006719;28;20027;-84
2023/10/09 06:33:04;;;;;;;47.22;18.85;;;;;;;;;;5008181;28;20512;-82
2023/10/09 06:35:35;;;;;;;37.15;17.00;;;;;;;;;;5008447;28;20050;-79
2023/10/09 06:43:17;;;;;;;41.67;17.23;;;;;;;;;;5009061;28;20092;-84
2023/10/09 06:45:54;;;;;;;37.33;17.30;;;;;;;;;;4986758;28;20034;-84
2023/10/09 06:54:04;;;;;;;38.10;15.60;;;;;;;;;;5011233;28;20049;-85
2023/10/09 06:58:58;;;;;;;39.50;16.45;;;;;;;;;;5005842;28;20049;-84
2023/10/09 07:03:53;;;;;;;38.47;15.48;;;;;;;;;;5006838;28;20069;-84
2023/10/09 07:14:06;;;;;;;40.28;15.25;;;;;;;;;;4984212;28;20049;-85
2023/10/09 07:16:39;;;;;;;42.60;15.05;;;;;;;;;;4994415;28;20042;-84
2023/10/09 07:21:54;;;;;;;38.78;15.23;;;;;;;;;;5011290;28;20050;-84
2023/10/09 07:24:34;;;;;;;36.58;15.68;;;;;;;;;;4995390;28;20486;-85
2023/10/09 07:27:06;;;;;;;49.00;15.20;;;;;;;;;;4992866;28;20045;-85
2023/10/09 07:29:47;;;;;;;32.40;14.07;;;;;;;;;;4997060;28;20108;-85
2023/10/09 07:32:19;;;;;;;32.45;14.20;;;;;;;;;;5005704;28;20057;-84
2023/10/09 07:34:58;;;;;;;37.72;14.55;;;;;;;;;;4999914;28;20049;-85
2023/10/09 07:37:30;;;;;;;39.17;13.95;;;;;;;;;;4996271;28;20043;-84
2023/10/09 07:39:57;;;;;;;41.95;14.63;;;;;;;;;;5003960;28;20049;-85
2023/10/09 07:50:38;;;;;;;40.53;13.25;;;;;;;;;;4989067;28;20089;-84
2023/10/09 07:53:26;;;;;;;34.70;13.48;;;;;;;;;;5005994;28;20049;-83
2023/10/09 07:56:06;;;;;;;28.00;12.85;;;;;;;;;;4984060;28;20046;-80
2023/10/09 07:58:45;;;;;;;38.63;14.18;;;;;;;;;;4992235;28;20030;-80
2023/10/09 08:04:05;;;;;;;36.10;13.57;;;;;;;;;;4987035;28;20129;-80
2023/10/09 08:06:44;;;;;;;37.15;14.05;;;;;;;;;;5000986;28;20057;-80
2023/10/09 08:16:46;;;;;;;40.22;14.85;;;;;;;;;;5000653;28;20061;-78
2023/10/09 08:24:42;;;;;;;37.97;13.25;;;;;;;;;;5010571;28;20137;-80
2023/10/09 08:30:12;;;;;;;36.22;13.45;;;;;;;;;;5012543;28;20834;-79
2023/10/09 08:32:40;;;;;;;35.83;11.80;;;;;;;;;;5013093;28;20046;-79
2023/10/09 08:35:29;;;;;;;38.78;12.73;;;;;;;;;;4972857;28;20142;-79
2023/10/09 08:37:58;;;;;;;39.42;12.27;;;;;;;;;;4992598;28;20044;-80
2023/10/09 08:40:37;;;;;;;38.92;13.30;;;;;;;;;;4982694;28;20049;-78
2023/10/09 08:43:19;;;;;;;31.88;13.50;;;;;;;;;;4982523;28;20046;-80
2023/10/09 08:45:46;;;;;;;43.67;14.18;;;;;;;;;;4996262;28;20456;-79
2023/10/09 08:48:15;;;;;;;34.00;12.40;;;;;;;;;;4991730;28;20054;-80
2023/10/09 08:50:45;;;;;;;34.30;13.43;;;;;;;;;;5007072;28;20711;-79
2023/10/09 08:53:16;;;;;;;38.92;12.13;;;;;;;;;;4994091;28;20553;-79
2023/10/09 08:55:42;;;;;;;44.17;13.68;;;;;;;;;;5003503;28;20046;-89
2023/10/09 08:58:28;;;;;;;34.47;12.48;;;;;;;;;;5015746;28;20034;-85
2023/10/09 09:00:55;;;;;;;43.17;14.18;;;;;;;;;;5009087;28;20042;-88
2023/10/09 09:03:25;;;;;;;34.95;13.88;;;;;;;;;;4985828;28;20056;-83
2023/10/09 09:06:00;;;;;;;38.83;13.98;;;;;;;;;;4973609;28;20053;-84
2023/10/09 09:08:30;;;;;;;37.88;13.18;;;;;;;;;;4994677;28;20393;-84
2023/10/09 09:11:22;;;;;;;32.22;13.40;;;;;;;;;;4994865;28;20516;-84
2023/10/09 09:14:18;;;;;;;34.22;12.02;;;;;;;;;;5006218;28;20133;-84
2023/10/09 09:16:48;;;;;;;38.03;12.27;;;;;;;;;;4999457;28;20045;-82
2023/10/09 09:19:20;;;;;;;33.20;11.88;;;;;;;;;;5004347;28;20049;-84
2023/10/09 09:21:58;;;;;;;34.47;13.02;;;;;;;;;;5009261;28;20129;-84
2023/10/09 09:29:37;;;;;;;31.38;11.60;;;;;;;;;;5006164;28;21022;-83
2023/10/09 09:32:17;;;;;;;39.38;13.13;;;;;;;;;;5002140;28;20054;-83
2023/10/09 09:34:49;;;;;;;33.25;11.23;;;;;;;;;;4997012;28;20071;-82
2023/10/09 09:37:21;;;;;;;33.65;11.90;;;;;;;;;;4994594;28;20128;-83
2023/10/09 09:39:51;;;;;;;36.05;11.88;;;;;;;;;;5018964;28;20041;-83
2023/10/09 09:42:24;;;;;;;30.08;10.68;;;;;;;;;;4990357;28;20093;-84
2023/10/09 09:44:51;;;;;;;34.90;11.93;;;;;;;;;;4980844;28;20045;-83
2023/10/09 09:47:25;;;;;;;32.95;10.75;;;;;;;;;;4990866;28;20038;-83
2023/10/09 09:49:52;;;;;;;;;;;;;;;;;;5010183;28;20042;-84
2023/10/09 09:52:19;;;;;;;36.65;10.68;;;;;;;;;;5016030;28;19917;-82
2023/10/09 09:54:45;;;;;;;40.00;10.15;;;;;;;;;;4981489;28;20044;-82
2023/10/09 09:57:25;;;;;;;28.20;10.55;;;;;;;;;;4996676;28;20124;-84
2023/10/09 09:59:55;;;;;;;34.08;10.52;;;;;;;;;;5003407;28;20069;-84
2023/10/09 10:02:33;;;;;;;36.13;10.63;;;;;;;;;;5016416;28;20050;-84
2023/10/09 10:05:03;;;;;;;36.13;10.48;;;;;;;;;;4997675;28;20077;-84
2023/10/09 10:07:37;;;;;;;26.35;9.75;;;;;;;;;;5008758;28;20549;-84
2023/10/09 10:10:08;;;;;;;;;;;16.80;99.90;;;;;;4993128;28;20133;-83
2023/10/09 10:12:47;;;;;;;34.65;9.13;;;;;;;;;;4976057;28;19918;-83
2023/10/09 10:15:16;;;;;;;34.45;10.57;;;;;;;;;;4991951;28;20072;-83
2023/10/09 10:18:00;;;;;;;28.10;9.80;;;;;;;;;;5006030;28;20073;-84
2023/10/09 10:20:26;;;;;;;33.38;9.75;;;;;;;;;;4989428;28;21505;-83
2023/10/09 10:23:17;;;;;;;30.15;9.55;;;;;;;;;;5004490;28;20120;-84
2023/10/09 10:25:49;;;;;;;32.08;10.70;;;;;;;;;;4992554;28;20049;-84
2023/10/09 10:28:45;;;;;;;31.98;10.63;;;;;;;;;;5019814;28;20109;-84
2023/10/09 10:31:13;;;;;;;26.55;9.77;;;;;;;;;;4984248;28;20066;-84
2023/10/09 10:33:55;;;;;;;34.72;11.20;;;;;;;;;;4982382;28;20094;-85
2023/10/09 10:36:24;;;;;;;28.92;10.23;;;;;;;;;;4989544;28;20054;-85
2023/10/09 10:39:04;;;;;;;36.50;11.98;;;;;;;;;;4994415;28;20076;-85
2023/10/09 10:41:36;;;;;;;33.42;11.40;;;;;;;;;;5019875;28;20119;-85
2023/10/09 10:44:33;;;;;;;31.92;10.88;;;;;;;;;;4997592;28;20108;-84
2023/10/09 10:46:52;;;;;;;35.88;11.65;;;;;;;;;;5013352;28;20042;-85
2023/10/09 10:49:21;;;;;;;29.13;9.20;;;;;;;;;;5003184;28;20453;-85
2023/10/09 10:51:49;;;;;;;29.23;8.88;;;;;;;;;;5012945;28;20037;-85
2023/10/09 10:56:58;;;;;;;27.92;9.10;;;;;;;;;;5003099;28;20053;-85
2023/10/09 10:59:25;;;;;;;31.15;9.60;;;;;;;;;;4976667;28;20044;-86
2023/10/09 11:02:13;;;;;;;26.67;8.52;;;;;;;;;;4997461;28;20528;-85
2023/10/09 11:04:43;;;;;;;29.75;7.80;;;;;;;;;;4993543;28;20045;-85
2023/10/09 11:07:10;;;;;;;23.30;8.20;;;;;;;;;;4996352;28;20084;-85
2023/10/09 11:12:39;;;;;;;18.98;6.82;;;;;;;;;;5007045;28;20050;-84
2023/10/09 11:15:44;;;;;;;19.33;5.50;;;16.50;99.90;;;;;;5004629;28;20046;-87
2023/10/09 11:18:20;;;;;;;;;;;16.50;99.90;;;;;;5010640;28;20058;-87
2023/10/09 11:28:49;;;;;;;14.90;5.03;;;;;;;;;;5004148;28;20104;-82
2023/10/09 11:31:18;;;;;;;26.92;5.82;;;;;;;;;;4985665;28;20589;-83
2023/10/09 11:33:45;;;;;;;23.52;5.97;;;;;;;;;;5005990;28;20413;-83
2023/10/09 11:36:11;;;;;;;25.40;7.07;;;;;;;;;;5007602;28;20517;-83
2023/10/09 11:38:38;;;;;;;24.02;6.68;;;;;;;;;;4993458;28;20039;-83
2023/10/09 11:41:22;;;;;;;21.30;6.45;;;;;;;;;;4977124;28;20034;-83
2023/10/09 11:43:53;;;;;;;23.00;5.55;;;;;;;;;;4990678;28;20103;-83
2023/10/09 11:49:44;;;;;;;26.35;6.68;;;;;;;;;;4991185;28;20104;-83
2023/10/09 11:52:35;;;;;;;21.58;5.55;;;;;;;;;;4975082;28;20132;-84
2023/10/09 11:54:56;;;;;;;17.65;4.68;;;;;;;;;;4999809;28;20480;-83
2023/10/09 11:57:30;;;;;;;15.23;5.53;;;;;;;;;;4989397;28;20077;-83
2023/10/09 11:59:56;;;;;;;;;;;;;;;;;;4977922;28;20088;-84
2023/10/09 12:02:22;;;;;;;21.63;5.68;;;;;;;;;;5000085;28;19960;-83
2023/10/09 12:04:48;;;;;;;18.52;4.85;;;;;;;;;;4994081;28;20179;-82
2023/10/09 12:07:16;;;;;;;18.38;4.80;;;;;;;;;;4966858;28;20734;-83
2023/10/09 12:09:42;;;;;;;21.27;5.45;;;;;;;;;;5003340;28;20045;-82
2023/10/09 12:12:11;;;;;;;16.35;4.57;;;;;;;;;;4987941;28;20036;-83
2023/10/09 12:14:37;;;;;;;16.60;4.93;;;;;;;;;;4989904;28;20046;-81
2023/10/09 12:17:07;;;;;;;16.63;4.90;;;;;;;;;;4976007;28;20145;-82
2023/10/09 12:19:39;;;;;;;17.27;4.70;;;;;;;;;;5004494;28;20042;-82
2023/10/09 12:22:10;;;;;;;17.63;5.63;;;;;;;;;;5002319;28;20141;-82
2023/10/09 12:24:43;;;;;;;21.88;6.20;;;;;;;;;;4988039;28;20409;-83
2023/10/09 12:27:11;;;;;;;21.50;5.85;;;;;;;;;;4978950;28;20393;-87
2023/10/09 12:29:37;;;;;;;13.07;4.75;;;;;;;;;;5014901;28;20054;-89
2023/10/09 12:32:06;;;;;;;17.77;5.07;;;;;;;;;;4995702;28;20100;-85
2023/10/09 12:34:32;;;;;;;18.90;4.53;;;;;;;;;;4975095;28;20054;-89
2023/10/09 12:37:01;;;;;;;19.52;6.10;;;;;;;;;;5003083;28;20038;-81
2023/10/09 12:39:33;;;;;;;16.60;4.95;;;;;;;;;;4993539;28;20053;-82
2023/10/09 12:42:08;;;;;;;23.90;6.00;;;;;;;;;;4991473;28;20132;-81
2023/10/09 12:44:38;;;;;;;24.67;6.13;;;;;;;;;;5004165;28;20039;-81
2023/10/09 12:47:11;;;;;;;24.33;5.05;;;;;;;;;;4995940;28;20042;-81
2023/10/09 12:49:40;;;;;;;17.67;4.13;;;;;;;;;;5005329;28;20045;-82
2023/10/09 12:52:15;;;;;;;13.15;4.38;;;;;;;;;;5006674;28;20034;-82
2023/10/09 12:54:41;;;;;;;28.25;4.93;;;;;;;;;;4994142;28;20108;-82
2023/10/09 12:57:13;;;;;;;14.32;3.53;;;;;;;;;;4999265;28;20041;-83
2023/10/09 12:59:44;;;;;;;16.17;4.22;;;;;;;;;;5000652;28;20069;-83
2023/10/09 13:02:11;;;;;;;14.65;3.63;;;;;;;;;;4993923;28;20053;-83
2023/10/09 13:04:41;;;;;;;13.90;3.65;;;;;;;;;;5007277;28;20075;-83
2023/10/09 13:07:07;;;;;;;13.65;3.22;;;;;;;;;;4997206;28;20180;-83
2023/10/09 13:09:43;;;;;;;8.68;3.20;;;;;;;;;;4981698;28;20485;-83
2023/10/09 13:12:17;;;;;;;10.63;3.22;;;;;;;;;;5008527;28;20101;-84
2023/10/09 13:14:49;;;;;;;12.18;3.45;;;;;;;;;;5008888;28;20512;-83
2023/10/09 13:17:15;;;;;;;15.15;3.75;;;;;;;;;;4998552;28;20042;-84
2023/10/09 13:19:43;;;;;;;9.75;3.10;;;;;;;;;;4992812;28;20049;-83
2023/10/09 13:22:12;;;;;;;15.95;3.72;;;;;;;;;;5008866;28;20080;-83
2023/10/09 13:24:39;;;;;;;13.52;3.40;;;;;;;;;;4996042;28;20042;-83
2023/10/09 13:27:09;;;;;;;8.10;3.50;;;;;;;;;;4982156;28;20038;-83
2023/10/09 13:29:35;;;;;;;14.95;3.40;;;;;;;;;;4991467;28;20033;-82
2023/10/09 13:32:02;;;;;;;13.95;3.58;;;;;;;;;;5009360;28;20045;-82
2023/10/09 13:34:28;;;;;;;14.20;4.20;;;;;;;;;;4999478;28;20053;-82
2023/10/09 13:36:58;;;;;;;14.35;3.95;;;;;;;;;;5009051;28;20076;-86
2023/10/09 13:39:24;;;;;;;11.85;3.40;;;;;;;;;;4996171;28;20056;-86
2023/10/09 13:41:57;;;;;;;16.88;3.63;;;;;;;;;;4996607;28;20503;-88
2023/10/09 13:44:26;;;;;;;17.23;3.40;;;;;;;;;;5018649;28;20116;-85
2023/10/09 13:46:53;;;;;;;15.40;3.58;;;;;;;;;;5007479;28;20493;-82
2023/10/09 13:49:22;;;;;;;16.65;3.55;;;;;;;;;;4979353;28;20037;-82
2023/10/09 13:51:49;;;;;;;9.80;3.30;;;;;;;;;;5008894;28;20497;-82
2023/10/09 13:54:28;;;;;;;11.85;3.80;;;;;;;;;;4993714;28;20048;-82
2023/10/09 13:56:57;;;;;;;7.85;2.60;;;;;;;;;;4990625;28;20026;-82
2023/10/09 13:59:27;;;;;;;11.82;3.05;;;;;;;;;;4989554;28;20048;-82
2023/10/09 14:01:56;;;;;;;12.77;2.47;;;;;;;;;;4989161;28;20125;-82
2023/10/09 14:04:23;;;;;;;9.38;2.25;;;;;;;;;;4991019;28;20061;-83
2023/10/09 14:07:01;;;;;;;12.32;2.70;;;;;;;;;;5008067;28;20041;-82
2023/10/09 14:09:27;;;;;;;16.55;2.72;;;;;;;;;;4988090;28;20043;-84
2023/10/09 14:12:10;;;;;;;11.65;2.63;;;;;;;;;;4989841;28;20038;-83
2023/10/09 14:14:49;;;;;;;11.60;2.35;;;;;;;;;;5006356;28;20072;-82
2023/10/09 14:17:23;;;;;;;6.47;1.80;;;;;;;;;;4974483;28;20057;-83
2023/10/09 14:19:49;;;;;;;;;;;;;;;;;;5002896;28;20045;-83
2023/10/09 14:22:16;;;;;;;12.57;2.17;;;;;;;;;;5006246;28;19917;-83
2023/10/09 14:24:46;;;;;;;12.90;2.92;;;;;;;;;;4993587;28;20046;-83
2023/10/09 14:27:19;;;;;;;16.05;2.20;;;;;;;;;;5005002;28;20041;-83
2023/10/09 14:29:49;;;;;;;22.42;3.25;;;;;;;;;;4996478;28;20034;-83
2023/10/09 14:32:16;;;;;;;16.88;2.42;;;;;;;;;;4988827;28;20063;-83
2023/10/09 14:34:46;;;;;;;11.77;2.45;;;;;;;;;;4993585;28;20037;-82
2023/10/09 14:37:14;;;;;;;9.93;2.30;;;;;;;;;;4978887;28;20524;-83
2023/10/09 14:39:41;;;;;;;14.18;2.50;;;;;;;;;;5007592;28;20084;-83
2023/10/09 14:42:10;;;;;;;14.77;2.40;;;;;;;;;;4977065;28;20033;-83
2023/10/09 14:44:37;;;;;;;4.65;1.50;;;;;;;;;;4990959;28;20460;-83
2023/10/09 14:47:07;;;;;;;9.50;1.80;;;;;;;;;;4996097;28;20145;-83
2023/10/09 14:49:43;;;;;;;7.40;1.88;;;;;;;;;;5004043;28;20034;-82
2023/10/09 14:52:16;;;;;;;8.15;1.55;;;;;;;;;;4985927;28;20073;-83
2023/10/09 14:54:44;;;;;;;9.60;1.50;;;;;;;;;;4985823;28;24318;-84
2023/10/09 14:57:11;;;;;;;9.60;1.63;;;;;;;;;;5005964;28;20053;-83
2023/10/09 14:59:37;;;;;;;6.80;1.98;;;;;;;;;;5001937;28;20044;-82
2023/10/09 15:02:05;;;;;;;5.20;1.30;;;;;;;;;;5004387;28;20049;-84
2023/10/09 15:04:35;;;;;;;6.38;1.08;;;;;;;;;;4986655;28;20141;-82
2023/10/09 15:07:01;;;;;;;6.38;1.48;;;;;;;;;;5001280;28;20050;-82
2023/10/09 15:09:31;;;;;;;10.63;2.67;;;;;;;;;;4984473;28;20042;-83
2023/10/09 15:11:57;;;;;;;11.20;2.42;;;;;;;;;;4975147;28;20065;-82
2023/10/09 15:14:24;;;;;;;8.00;1.58;;;;;;;;;;4980026;28;20058;-82
2023/10/09 15:16:50;;;;;;;11.60;2.20;;;;;;;;;;4982935;28;20801;-82
2023/10/09 15:19:16;;;;;;;6.78;1.45;;;;;;;;;;4993840;28;20046;-82
2023/10/09 15:21:46;;;;;;;6.55;1.40;;;;;;;;;;4991722;28;20041;-82
2023/10/09 15:24:15;;;;;;;9.25;1.73;;;;;;;;;;5000549;28;20042;-82
2023/10/09 15:26:52;;;;;;;10.43;1.73;;;;;;;;;;4985062;28;20585;-83
2023/10/09 15:29:19;;;;;;;7.22;1.60;;;;;;;;;;4979320;28;20049;-82
2023/10/09 15:31:50;;;;;;;13.13;2.53;;;;;;;;;;4969742;28;20564;-83
2023/10/09 15:34:20;;;;;;;9.82;1.38;;;;;;;;;;4985119;28;20045;-83
2023/10/09 15:36:47;;;;;;;9.60;1.95;;;;;;;;;;4985666;28;20147;-82
2023/10/09 15:39:13;;;;;;;11.20;2.50;;;;;;;;;;5015887;28;20056;-82
2023/10/09 15:41:40;;;;;;;11.85;1.90;;;;;;;;;;4973867;28;20125;-83
2023/10/09 15:44:06;;;;;;;9.27;1.67;;;;;;;;;;5000840;28;20047;-82
2023/10/09 15:46:35;;;;;;;8.15;1.45;;;;;;;;;;4986427;28;20044;-83
2023/10/09 15:49:02;;;;;;;7.47;1.30;;;;;;;;;;5010675;28;20515;-82
2023/10/09 15:51:30;;;;;;;11.18;1.70;;;;;;;;;;4980127;28;20109;-83
2023/10/09 15:53:56;;;;;;;13.75;2.67;;;;;;;;;;4995817;28;20128;-82
2023/10/09 15:56:23;;;;;;;11.25;1.42;;;;;;;;;;4982843;28;20045;-78
2023/10/09 15:58:49;;;;;;;12.25;1.63;;;;;;;;;;5001884;28;20048;-78
2023/10/09 16:01:18;;;;;;;8.18;2.30;;;;;;;;;;4982562;28;20042;-78
2023/10/09 16:03:47;;;;;;;7.82;1.48;;;;;;;;;;4983047;28;20046;-81
2023/10/09 16:06:15;;;;;;;11.02;2.17;;;;;;;;;;4975035;28;20181;-78
2023/10/09 16:08:46;;;;;;;12.82;1.67;;;;;;;;;;5002849;28;20108;-79
2023/10/09 16:11:19;;;;;;;5.07;1.52;;;;;;;;;;4998558;28;20037;-77
2023/10/09 16:13:46;;;;;;;14.98;2.30;;;;;;;;;;4996766;28;20042;-77
2023/10/09 16:16:13;;;;;;;9.48;1.95;;;;;;;;;;4982570;28;20184;-80
2023/10/09 16:18:39;;;;;;;8.32;2.03;;;;;;;;;;5014824;28;20134;-77
2023/10/09 16:21:08;;;;;;;12.93;2.20;;;;;;;;;;4984942;28;20095;-78
2023/10/09 16:23:36;;;;;;;8.93;2.08;;;;;;;;;;4999508;28;20050;-78
2023/10/09 16:26:04;;;;;;;12.05;1.85;;;;;;;;;;4994546;28;20045;-77
2023/10/09 16:28:31;;;;;;;9.57;2.55;;;;;;;;;;4987855;28;20053;-79
2023/10/09 16:30:58;;;;;;;9.88;2.13;;;;;;;;;;4995356;28;20034;-79
2023/10/09 16:33:26;;;;;;;12.65;2.90;;;;;;;;;;4991442;28;20060;-77
2023/10/09 16:35:54;;;;;;;11.52;2.97;;;;;;;;;;4988302;28;20075;-80
2023/10/09 16:38:24;;;;;;;19.70;3.22;;;;;;;;;;5011364;28;20124;-82
2023/10/09 16:40:55;;;;;;;14.07;2.92;;;;;;;;;;5002779;28;20049;-79
2023/10/09 16:43:25;;;;;;;10.30;2.72;;;;;;;;;;4998857;28;20045;-78
2023/10/09 16:45:56;;;;;;;7.82;1.88;;;;;;;;;;5006219;28;20048;-79
2023/10/09 16:48:23;;;;;;;9.43;2.53;;;;;;;;;;4995924;28;20098;-78
2023/10/09 16:50:49;;;;;;;12.77;2.97;;;;;;;;;;5001019;28;20037;-78
2023/10/09 16:53:16;;;;;;;10.10;2.22;;;;;;;;;;4994143;28;20042;-80
2023/10/09 16:55:43;;;;;;;14.32;2.90;;;;;;;;;;4978668;28;20077;-77
2023/10/09 16:58:15;;;;;;;14.10;3.03;;;;;;;;;;4991701;28;20049;-77
2023/10/09 17:00:44;;;;;;;17.10;2.33;;;;;;;;;;4989365;28;20049;-77
2023/10/09 17:03:14;;;;;;;17.20;2.20;;;;;;;;;;4978830;28;20049;-77
2023/10/09 17:06:03;;;;;;;14.70;2.25;;;;;;;;;;4997940;28;20037;-77
2023/10/09 17:08:29;;;;;;;13.45;2.55;;;;;;;;;;5010665;28;20054;-80
2023/10/09 17:10:56;;;;;;;12.32;1.92;;;;;;;;;;5006744;28;20051;-82
2023/10/09 17:13:24;;;;;;;10.05;1.88;;;;;;;;;;5005239;28;20053;-81
2023/10/09 17:15:53;;;;;;;14.02;2.50;;;;;;;;;;5006031;28;20076;-82
2023/10/09 17:18:21;;;;;;;18.30;2.63;;;;;;;;;;5007393;28;20045;-81
2023/10/09 17:20:50;;;;;;;14.25;2.50;;;;;;;;;;4996595;28;20041;-83
2023/10/09 17:23:17;;;;;;;14.02;2.83;;;;;;;;;;4994233;28;21929;-82
2023/10/09 17:25:47;;;;;;;11.35;2.40;;;;;;;;;;4991999;28;20057;-84
2023/10/09 17:28:17;;;;;;;8.60;3.00;;;;;;;;;;4993495;28;20041;-83
2023/10/09 17:30:45;;;;;;;9.60;2.92;;;;;;;;;;5000160;28;20048;-84